createdAt,value
2023-03-30T00:02:10.963Z,42.5
2023-03-30T00:07:17.150Z,42.5
2023-03-30T00:12:23.423Z,42.5
2023-03-30T00:17:29.680Z,42.5
2023-03-30T00:22:35.938Z,42.5
2023-03-30T00:27:42.249Z,42.5
2023-03-30T00:32:48.681Z,42.5
2023-03-30T00:37:55.185Z,42.5
2023-03-30T00:43:01.612Z,42.5
2023-03-30T00:48:08.095Z,42.5
2023-03-30T00:53:14.556Z,42.5
2023-03-30T00:58:21.036Z,42.5
2023-03-30T01:03:27.501Z,42.5
2023-03-30T01:08:33.966Z,43
2023-03-30T01:13:40.439Z,43
2023-03-30T01:18:46.906Z,43
2023-03-30T01:23:53.376Z,43
2023-03-30T01:28:59.837Z,43
2023-03-30T01:34:06.316Z,43
2023-03-30T01:39:13.318Z,43
2023-03-30T01:44:20.341Z,43
2023-03-30T01:49:27.335Z,43
2023-03-30T01:54:34.332Z,43
2023-03-30T01:59:41.336Z,43
2023-03-30T02:04:48.354Z,43
2023-03-30T02:09:55.391Z,43
2023-03-30T02:15:02.344Z,43
2023-03-30T02:20:09.345Z,43
2023-03-30T02:25:16.432Z,43
2023-03-30T02:30:23.359Z,43
2023-03-30T02:35:30.381Z,43
2023-03-30T02:40:37.366Z,43
2023-03-30T02:45:45.242Z,43
2023-03-30T02:50:53.046Z,43
2023-03-30T02:56:00.881Z,43
2023-03-30T03:01:08.721Z,43
2023-03-30T03:06:16.541Z,43
2023-03-30T03:11:24.359Z,43
2023-03-30T03:16:32.181Z,43
2023-03-30T03:21:40.000Z,43
2023-03-30T03:26:47.819Z,43
2023-03-30T03:31:55.755Z,43
2023-03-30T03:37:03.490Z,43
2023-03-30T03:42:11.312Z,43
2023-03-30T03:47:19.137Z,43
2023-03-30T03:52:26.976Z,43
2023-03-30T03:57:34.809Z,43.5
2023-03-30T04:02:42.631Z,43.5
2023-03-30T04:07:50.458Z,43.5
2023-03-30T04:12:58.279Z,43.5
2023-03-30T04:18:06.106Z,43.5
2023-03-30T04:23:13.944Z,43.5
2023-03-30T04:28:21.767Z,43.5
2023-03-30T04:33:29.608Z,43.5
2023-03-30T04:38:37.413Z,43.5
2023-03-30T04:43:45.248Z,43.5
2023-03-30T04:48:51.644Z,43.5
2023-03-30T04:53:57.734Z,43.5
2023-03-30T04:59:03.824Z,43.5
2023-03-30T05:04:09.916Z,43.5
2023-03-30T05:09:15.999Z,43.5
2023-03-30T05:19:28.168Z,43.5
2023-03-30T05:24:34.257Z,43.5
2023-03-30T05:29:40.353Z,43.5
2023-03-30T05:34:46.448Z,43.5
2023-03-30T05:39:52.531Z,43.5
2023-03-30T05:44:58.623Z,43.5
2023-03-30T05:50:04.735Z,43.5
2023-03-30T05:55:10.790Z,43.5
2023-03-30T06:00:16.885Z,43.5
2023-03-30T06:05:22.974Z,43.5
2023-03-30T06:10:29.058Z,43.5
2023-03-30T06:15:35.156Z,43.5
2023-03-30T06:20:41.248Z,43.5
2023-03-30T06:25:47.316Z,43.5
2023-03-30T06:30:53.418Z,43.5
2023-03-30T06:35:59.509Z,43.5
2023-03-30T06:41:05.585Z,43.5
2023-03-30T06:46:11.678Z,43.5
2023-03-30T06:51:17.777Z,43.5
2023-03-30T06:56:23.929Z,43.5
2023-03-30T07:01:30.077Z,44
2023-03-30T07:06:36.232Z,44
2023-03-30T07:11:42.373Z,44
2023-03-30T07:16:48.534Z,44
2023-03-30T07:21:54.690Z,44
2023-03-30T07:27:00.842Z,44
2023-03-30T07:32:06.985Z,44
2023-03-30T07:37:13.136Z,44
2023-03-30T07:42:19.402Z,44
2023-03-30T07:47:25.426Z,44
2023-03-30T07:52:31.582Z,44
2023-03-30T07:57:37.762Z,44
2023-03-30T08:02:44.049Z,44
2023-03-30T08:07:50.273Z,44
2023-03-30T08:12:56.528Z,44
2023-03-30T08:18:02.798Z,44
2023-03-30T08:23:09.143Z,44
2023-03-30T08:28:15.317Z,44
2023-03-30T08:33:21.604Z,44
2023-03-30T08:38:27.854Z,44
2023-03-30T08:43:34.109Z,44
2023-03-30T08:48:40.441Z,44
2023-03-30T08:53:46.632Z,44
2023-03-30T08:58:52.914Z,44
2023-03-30T09:03:59.158Z,44
2023-03-30T09:09:05.644Z,44
2023-03-30T09:14:12.112Z,44
2023-03-30T09:19:18.600Z,44
2023-03-30T09:24:25.042Z,44.5
2023-03-30T09:29:31.517Z,44.5
2023-03-30T09:34:37.983Z,44.5
2023-03-30T09:39:44.454Z,44.5
2023-03-30T09:44:50.961Z,44.5
2023-03-30T09:49:57.396Z,44.5
2023-03-30T09:55:03.860Z,44.5
2023-03-30T10:00:10.364Z,44.5
2023-03-30T10:05:16.809Z,44.5
2023-03-30T10:10:23.274Z,44.5
2023-03-30T10:15:30.290Z,45
2023-03-30T10:20:37.293Z,45
2023-03-30T10:25:44.295Z,45
2023-03-30T10:30:51.301Z,45
2023-03-30T10:35:58.300Z,45
2023-03-30T10:41:05.304Z,45
2023-03-30T10:46:12.311Z,45
2023-03-30T10:51:19.418Z,45
2023-03-30T10:56:26.345Z,45
2023-03-30T11:01:33.377Z,45
2023-03-30T11:06:40.329Z,45
2023-03-30T11:11:47.319Z,45
2023-03-30T11:16:54.337Z,45
2023-03-30T11:22:02.174Z,45
2023-03-30T11:27:10.028Z,45
2023-03-30T11:32:17.860Z,45
2023-03-30T11:37:25.680Z,45
2023-03-30T11:42:33.480Z,45
2023-03-30T11:47:41.308Z,45
2023-03-30T11:52:49.148Z,45
2023-03-30T11:57:56.967Z,45
2023-03-30T12:03:04.813Z,45
2023-03-30T12:08:12.621Z,45.5
2023-03-30T12:13:20.547Z,45.5
2023-03-30T12:18:28.261Z,45.5
2023-03-30T12:23:36.102Z,45.5
2023-03-30T12:28:43.939Z,45.5
2023-03-30T12:33:51.755Z,45.5
2023-03-30T12:38:59.588Z,45.5
2023-03-30T12:44:07.433Z,45.5
2023-03-30T12:49:15.286Z,45.5
2023-03-30T12:54:23.104Z,45.5
2023-03-30T13:04:38.723Z,45.5
2023-03-30T13:09:46.559Z,45.5
2023-03-30T13:14:54.371Z,45.5
2023-03-30T13:20:02.190Z,45.5
2023-03-30T13:25:10.042Z,46
2023-03-30T13:30:17.869Z,46
2023-03-30T13:35:25.697Z,46
2023-03-30T13:40:33.568Z,46
2023-03-30T13:45:41.358Z,46
2023-03-30T13:50:49.177Z,46.5
2023-03-30T14:01:04.902Z,47
2023-03-30T14:11:20.500Z,47
2023-03-30T14:16:28.322Z,47
2023-03-30T14:21:36.143Z,47
2023-03-30T14:26:43.981Z,47
2023-03-30T14:36:59.622Z,47.5
2023-03-30T14:42:07.449Z,47.5
2023-03-30T14:47:15.288Z,47.5
2023-03-30T14:52:23.109Z,48
2023-03-30T14:57:30.946Z,47.5
2023-03-30T15:02:38.794Z,48
2023-03-30T15:07:46.592Z,48
2023-03-30T15:12:54.424Z,48
2023-03-30T15:18:02.251Z,48
2023-03-30T15:23:10.092Z,48
2023-03-30T15:28:17.916Z,48
2023-03-30T15:33:25.727Z,48
2023-03-30T15:38:33.570Z,48
2023-03-30T15:43:41.408Z,48
2023-03-30T15:48:49.214Z,48
2023-03-30T15:53:57.036Z,48
2023-03-30T15:59:04.878Z,48
2023-03-30T16:04:12.692Z,48
2023-03-30T16:09:20.578Z,48
2023-03-30T16:14:28.374Z,48
2023-03-30T16:24:44.061Z,48
2023-03-30T16:29:51.949Z,48
2023-03-30T16:34:59.662Z,48
2023-03-30T16:40:07.492Z,48
2023-03-30T16:45:15.317Z,48
2023-03-30T16:50:23.140Z,48.5
2023-03-30T16:55:30.976Z,48.5
2023-03-30T17:00:38.970Z,48.5
2023-03-30T17:05:46.627Z,48.5
2023-03-30T17:10:54.467Z,48.5
2023-03-30T17:16:02.354Z,48.5
2023-03-30T17:21:10.101Z,48.5
2023-03-30T17:26:17.935Z,48.5
2023-03-30T17:31:25.763Z,48.5
2023-03-30T17:36:33.630Z,48.5
2023-03-30T17:41:41.483Z,48.5
2023-03-30T17:46:49.241Z,48.5
2023-03-30T17:51:57.076Z,48.5
2023-03-30T17:57:04.927Z,48.5
2023-03-30T18:02:12.740Z,48.5
2023-03-30T18:07:20.590Z,48.5
2023-03-30T18:12:28.389Z,48.5
2023-03-30T18:17:36.198Z,49
2023-03-30T18:22:44.083Z,49
2023-03-30T18:27:50.291Z,48.5
2023-03-30T18:32:56.376Z,48.5
2023-03-30T18:38:02.475Z,49
2023-03-30T18:43:08.526Z,49
2023-03-30T18:48:14.627Z,49
2023-03-30T18:53:20.814Z,49
2023-03-30T18:58:26.796Z,49
2023-03-30T19:03:32.948Z,49
2023-03-30T19:08:39.083Z,49
2023-03-30T19:13:45.079Z,49
2023-03-30T19:18:51.173Z,49
2023-03-30T19:23:57.248Z,49
2023-03-30T19:29:03.336Z,49
2023-03-30T19:34:09.429Z,49
2023-03-30T19:44:21.624Z,49
2023-03-30T19:54:33.797Z,49
2023-03-30T19:59:39.869Z,49
2023-03-30T20:04:45.986Z,49
2023-03-30T20:09:52.059Z,49
2023-03-30T20:14:58.135Z,49
2023-03-30T20:20:04.219Z,49
2023-03-30T20:25:10.331Z,49
2023-03-30T20:30:16.399Z,49
2023-03-30T20:35:22.564Z,49
2023-03-30T20:40:28.721Z,49
2023-03-30T20:45:34.937Z,49
2023-03-30T20:50:41.013Z,49
2023-03-30T20:55:47.163Z,49
2023-03-30T21:00:53.331Z,49
2023-03-30T21:05:59.477Z,49
2023-03-30T21:11:05.613Z,49
2023-03-30T21:16:12.001Z,49
2023-03-30T21:21:17.921Z,49
2023-03-30T21:26:24.068Z,49
2023-03-30T21:31:30.279Z,49
2023-03-30T21:36:36.378Z,49
2023-03-30T21:41:42.643Z,49
2023-03-30T21:46:48.895Z,49
2023-03-30T21:51:55.210Z,49
2023-03-30T21:57:01.413Z,49
2023-03-30T22:02:07.724Z,49
2023-03-30T22:07:13.950Z,49
2023-03-30T22:12:20.208Z,49
2023-03-30T22:17:26.473Z,49
2023-03-30T22:22:32.741Z,49
2023-03-30T22:27:38.993Z,49
2023-03-30T22:32:45.262Z,49
2023-03-30T22:37:51.542Z,49
2023-03-30T22:42:57.801Z,49
2023-03-30T22:48:04.274Z,49
2023-03-30T22:53:10.735Z,49
2023-03-30T22:58:17.214Z,49
2023-03-30T23:03:23.682Z,49
2023-03-30T23:08:30.152Z,49
2023-03-30T23:13:36.627Z,49
2023-03-30T23:18:43.108Z,49
2023-03-30T23:23:49.561Z,49
2023-03-30T23:28:56.041Z,49
2023-03-30T23:34:02.517Z,49
2023-03-30T23:39:08.968Z,49
2023-03-30T23:44:15.443Z,49
2023-03-30T23:49:21.903Z,49
2023-03-30T23:54:28.963Z,49
2023-03-30T23:59:35.938Z,49
